TVF8025 GOBD-LFBO
Flight info
| Callsign | TVF8025 |
|---|---|
| Flight time | 4h 28m |
| Altitude | 35000 |
| Route | BIKIS1B BIKIS UB601 KETAS DCT ZRT/N0461F370 UR975 ECHED/N0450F360 DCT ADUBI/N0447F380 DCT SVL DCT HIJ DCT RUSEM DCT SOTUK DCT USOKO DCT TLD DCT SIE DCT BASIM DCT GASMO DCT VABAR T430 LPA DCT GOSVI/N0402F280 DCT TOPTU |
| Aircraft | B738/M-SDE2E3FGHIRWXY/LB1 |
Departure
| Time | 2026-04-25 18:51 |
|---|---|
| Airport | Blaise Diagne International Airport (GOBD) |
Arrival
| Time | 2026-04-25 23:20 |
|---|---|
| Airport | Toulouse-Blagnac Airport (LFBO) |
| Time | Latitude | Longitude | Altitude | Speed | Heading |
|---|---|---|---|---|---|
| 2026-04-25 18:19 | 14.67023 | -17.06862 | 291 ft | 0 kts | 89° |
| 2026-04-25 18:42 | 14.67023 | -17.06884 | 296 ft | 4 kts | 89° |
| 2026-04-25 18:42 | 14.67023 | -17.06903 | 295 ft | 4 kts | 89° |
| 2026-04-25 18:42 | 14.67022 | -17.06938 | 295 ft | 2 kts | 89° |
| 2026-04-25 18:42 | 14.67026 | -17.06961 | 295 ft | 4 kts | 129° |
| 2026-04-25 18:43 | 14.67047 | -17.06975 | 297 ft | 4 kts | 169° |
| 2026-04-25 18:43 | 14.67071 | -17.06978 | 296 ft | 2 kts | 179° |
| 2026-04-25 18:43 | 14.67072 | -17.06978 | 296 ft | 0 kts | 179° |
| 2026-04-25 18:45 | 14.67060 | -17.06977 | 294 ft | 4 kts | 178° |
| 2026-04-25 18:46 | 14.67015 | -17.06977 | 294 ft | 9 kts | 181° |
| 2026-04-25 18:46 | 14.66943 | -17.06977 | 291 ft | 11 kts | 177° |
| 2026-04-25 18:46 | 14.66860 | -17.06974 | 291 ft | 12 kts | 180° |
| 2026-04-25 18:46 | 14.66770 | -17.06974 | 293 ft | 14 kts | 178° |
| 2026-04-25 18:47 | 14.66674 | -17.06993 | 291 ft | 14 kts | 229° |
| 2026-04-25 18:47 | 14.66637 | -17.07082 | 295 ft | 14 kts | 207° |
| 2026-04-25 18:47 | 14.66544 | -17.07086 | 292 ft | 13 kts | 179° |
| 2026-04-25 18:47 | 14.66453 | -17.07084 | 291 ft | 13 kts | 180° |
| 2026-04-25 18:48 | 14.66365 | -17.07083 | 293 ft | 12 kts | 178° |
| 2026-04-25 18:48 | 14.66276 | -17.07083 | 291 ft | 14 kts | 182° |
| 2026-04-25 18:48 | 14.66161 | -17.07083 | 290 ft | 19 kts | 180° |
| 2026-04-25 18:48 | 14.66014 | -17.07081 | 286 ft | 23 kts | 179° |
| 2026-04-25 18:49 | 14.65841 | -17.07078 | 284 ft | 25 kts | 179° |
| 2026-04-25 18:49 | 14.65676 | -17.07077 | 281 ft | 17 kts | 180° |
| 2026-04-25 18:49 | 14.65623 | -17.07105 | 280 ft | 3 kts | 247° |
| 2026-04-25 18:49 | 14.65619 | -17.07126 | 280 ft | 3 kts | 263° |
| 2026-04-25 18:50 | 14.65617 | -17.07152 | 280 ft | 5 kts | 269° |
| 2026-04-25 18:50 | 14.65618 | -17.07206 | 280 ft | 10 kts | 271° |
| 2026-04-25 18:50 | 14.65651 | -17.07264 | 280 ft | 10 kts | 341° |
| 2026-04-25 18:50 | 14.65751 | -17.07270 | 281 ft | 29 kts | 359° |
| 2026-04-25 18:51 | 14.66197 | -17.07274 | 287 ft | 96 kts | 359° |
| 2026-04-25 18:51 | 14.66728 | -17.07279 | 297 ft | 134 kts | 359° |
| 2026-04-25 18:51 | 14.68222 | -17.07298 | 685 ft | 169 kts | 359° |
| 2026-04-25 18:51 | 14.69436 | -17.07321 | 1319 ft | 181 kts | 359° |
| 2026-04-25 18:52 | 14.70707 | -17.07369 | 2129 ft | 183 kts | 0° |
| 2026-04-25 18:52 | 14.72057 | -17.07368 | 2479 ft | 206 kts | 1° |
| 2026-04-25 18:52 | 14.73563 | -17.07357 | 2671 ft | 227 kts | 1° |
| 2026-04-25 18:52 | 14.75228 | -17.07356 | 2836 ft | 252 kts | 360° |
| 2026-04-25 18:53 | 14.77047 | -17.07367 | 3231 ft | 269 kts | 359° |
| 2026-04-25 18:53 | 14.78934 | -17.07386 | 3884 ft | 273 kts | 359° |
| 2026-04-25 18:53 | 14.80851 | -17.07408 | 4550 ft | 277 kts | 358° |
| 2026-04-25 18:53 | 14.82793 | -17.07432 | 5228 ft | 283 kts | 358° |
| 2026-04-25 18:54 | 14.86999 | -17.07473 | 5839 ft | 319 kts | 358° |
| 2026-04-25 18:54 | 14.89237 | -17.07491 | 6406 ft | 326 kts | 358° |
| 2026-04-25 18:54 | 14.91516 | -17.07510 | 7039 ft | 328 kts | 358° |
| 2026-04-25 18:55 | 14.93823 | -17.07530 | 7570 ft | 336 kts | 357° |
| 2026-04-25 18:55 | 14.96189 | -17.07553 | 8079 ft | 343 kts | 358° |
| 2026-04-25 18:55 | 14.98597 | -17.07576 | 8686 ft | 348 kts | 357° |
| 2026-04-25 18:55 | 15.01035 | -17.07599 | 9247 ft | 354 kts | 358° |
| 2026-04-25 18:56 | 15.03510 | -17.07622 | 9853 ft | 358 kts | 358° |
| 2026-04-25 18:56 | 15.05984 | -17.07644 | 10393 ft | 362 kts | 358° |
| 2026-04-25 18:56 | 15.08506 | -17.07667 | 11019 ft | 363 kts | 358° |
| 2026-04-25 18:56 | 15.11040 | -17.07691 | 11637 ft | 365 kts | 358° |
| 2026-04-25 18:57 | 15.13594 | -17.07715 | 12205 ft | 369 kts | 358° |
| 2026-04-25 18:57 | 15.16178 | -17.07740 | 12781 ft | 373 kts | 357° |
| 2026-04-25 18:57 | 15.18779 | -17.07765 | 13369 ft | 376 kts | 357° |
| 2026-04-25 18:57 | 15.19665 | -17.07773 | 13573 ft | 377 kts | 357° |
| 2026-04-25 18:58 | 15.24048 | -17.07816 | 14448 ft | 382 kts | 357° |
| 2026-04-25 18:58 | 15.29570 | -17.07872 | 14668 ft | 411 kts | 357° |
| 2026-04-25 18:58 | 15.32469 | -17.07901 | 14785 ft | 422 kts | 357° |
| 2026-04-25 18:59 | 15.38272 | -17.06781 | 14860 ft | 432 kts | 15° |
| 2026-04-25 18:59 | 15.43983 | -17.04873 | 14850 ft | 430 kts | 15° |
| 2026-04-25 19:00 | 15.49681 | -17.03007 | 14851 ft | 429 kts | 15° |
| 2026-04-25 19:00 | 15.52536 | -17.02094 | 14876 ft | 433 kts | 15° |
| 2026-04-25 19:01 | 15.58273 | -17.00279 | 16039 ft | 424 kts | 14° |
| 2026-04-25 19:01 | 15.61074 | -16.99394 | 16746 ft | 418 kts | 14° |
| 2026-04-25 19:01 | 15.63848 | -16.98519 | 17364 ft | 415 kts | 14° |
| 2026-04-25 19:01 | 15.66605 | -16.97649 | 17991 ft | 412 kts | 14° |
| 2026-04-25 19:02 | 15.72052 | -16.95930 | 19096 ft | 408 kts | 14° |
| 2026-04-25 19:02 | 15.74769 | -16.95073 | 19511 ft | 409 kts | 14° |
| 2026-04-25 19:02 | 15.77506 | -16.94211 | 19891 ft | 412 kts | 14° |
| 2026-04-25 19:03 | 15.81192 | -16.93048 | 20415 ft | 415 kts | 14° |
| 2026-04-25 19:03 | 15.85801 | -16.91593 | 21075 ft | 418 kts | 14° |
| 2026-04-25 19:03 | 15.88592 | -16.90711 | 21467 ft | 420 kts | 14° |
| 2026-04-25 19:04 | 15.94207 | -16.88936 | 22197 ft | 424 kts | 14° |
| 2026-04-25 19:04 | 15.97039 | -16.88041 | 22554 ft | 426 kts | 14° |
| 2026-04-25 19:05 | 16.02730 | -16.86240 | 23276 ft | 429 kts | 14° |
| 2026-04-25 19:05 | 16.08466 | -16.84425 | 23891 ft | 432 kts | 14° |
| 2026-04-25 19:05 | 16.11348 | -16.83512 | 24184 ft | 433 kts | 14° |
| 2026-04-25 19:06 | 16.14237 | -16.82597 | 24467 ft | 435 kts | 14° |
| 2026-04-25 19:06 | 16.20043 | -16.80758 | 25028 ft | 437 kts | 14° |
| 2026-04-25 19:06 | 16.22955 | -16.79835 | 25305 ft | 439 kts | 14° |
| 2026-04-25 19:07 | 16.28801 | -16.77948 | 25851 ft | 442 kts | 16° |
| 2026-04-25 19:07 | 16.31672 | -16.76774 | 26112 ft | 445 kts | 19° |
| 2026-04-25 19:08 | 16.37341 | -16.74114 | 26616 ft | 449 kts | 21° |
| 2026-04-25 19:08 | 16.40151 | -16.72767 | 26839 ft | 451 kts | 20° |
| 2026-04-25 19:09 | 16.48765 | -16.68735 | 27553 ft | 454 kts | 19° |
| 2026-04-25 19:09 | 16.49739 | -16.68288 | 27624 ft | 455 kts | 19° |
| 2026-04-25 19:09 | 16.57487 | -16.64744 | 28228 ft | 458 kts | 19° |
| 2026-04-25 19:10 | 16.59463 | -16.63843 | 28371 ft | 459 kts | 19° |
| 2026-04-25 19:10 | 16.62393 | -16.62505 | 28573 ft | 460 kts | 19° |
| 2026-04-25 19:10 | 16.65331 | -16.61163 | 28788 ft | 462 kts | 19° |
| 2026-04-25 19:10 | 16.68276 | -16.59816 | 28987 ft | 463 kts | 19° |
| 2026-04-25 19:11 | 16.71189 | -16.58483 | 29195 ft | 464 kts | 19° |
| 2026-04-25 19:11 | 16.74150 | -16.57128 | 29393 ft | 466 kts | 18° |
| 2026-04-25 19:11 | 16.77123 | -16.55767 | 29569 ft | 467 kts | 18° |
| 2026-04-25 19:11 | 16.80098 | -16.54404 | 29774 ft | 468 kts | 18° |
| 2026-04-25 19:12 | 16.83061 | -16.53045 | 30034 ft | 467 kts | 18° |
| 2026-04-25 19:12 | 16.86044 | -16.51676 | 30274 ft | 466 kts | 18° |
| 2026-04-25 19:12 | 16.89014 | -16.50313 | 30466 ft | 466 kts | 18° |
| 2026-04-25 19:12 | 16.91984 | -16.48950 | 30640 ft | 467 kts | 18° |
| 2026-04-25 19:13 | 16.94960 | -16.47585 | 30834 ft | 467 kts | 18° |
| 2026-04-25 19:13 | 16.97934 | -16.46219 | 31055 ft | 467 kts | 18° |
| 2026-04-25 19:13 | 17.00907 | -16.44854 | 31267 ft | 467 kts | 18° |
| 2026-04-25 19:13 | 17.03885 | -16.43486 | 31460 ft | 467 kts | 18° |
| 2026-04-25 19:14 | 17.06862 | -16.42118 | 31671 ft | 467 kts | 18° |
| 2026-04-25 19:14 | 17.08832 | -16.41212 | 31794 ft | 468 kts | 18° |
| 2026-04-25 19:14 | 17.12826 | -16.39376 | 32033 ft | 469 kts | 18° |
| 2026-04-25 19:14 | 17.15815 | -16.38001 | 32248 ft | 469 kts | 18° |
| 2026-04-25 19:15 | 17.18797 | -16.36628 | 32459 ft | 469 kts | 18° |
| 2026-04-25 19:15 | 17.21785 | -16.35253 | 32657 ft | 469 kts | 18° |
| 2026-04-25 19:15 | 17.24772 | -16.33877 | 32843 ft | 470 kts | 18° |
| 2026-04-25 19:15 | 17.27762 | -16.32499 | 33051 ft | 470 kts | 18° |
| 2026-04-25 19:16 | 17.30752 | -16.31121 | 33264 ft | 470 kts | 18° |
| 2026-04-25 19:16 | 17.33744 | -16.29742 | 33453 ft | 470 kts | 18° |
| 2026-04-25 19:16 | 17.36735 | -16.28363 | 33648 ft | 470 kts | 18° |
| 2026-04-25 19:16 | 17.39728 | -16.26982 | 33843 ft | 470 kts | 18° |
| 2026-04-25 19:17 | 17.42722 | -16.25600 | 34009 ft | 470 kts | 18° |
| 2026-04-25 19:17 | 17.45717 | -16.24217 | 34187 ft | 470 kts | 18° |
| 2026-04-25 19:17 | 17.48708 | -16.22836 | 34360 ft | 470 kts | 18° |
| 2026-04-25 19:17 | 17.51696 | -16.21455 | 34524 ft | 470 kts | 18° |
| 2026-04-25 19:18 | 17.54694 | -16.20069 | 34679 ft | 470 kts | 18° |
| 2026-04-25 19:18 | 17.57687 | -16.18686 | 34842 ft | 470 kts | 18° |
| 2026-04-25 19:18 | 17.60678 | -16.17303 | 35010 ft | 470 kts | 18° |
| 2026-04-25 19:18 | 17.63661 | -16.15922 | 35171 ft | 470 kts | 18° |
| 2026-04-25 19:19 | 17.66661 | -16.14534 | 35331 ft | 470 kts | 18° |
| 2026-04-25 19:19 | 17.69651 | -16.13150 | 35485 ft | 470 kts | 18° |
| 2026-04-25 19:19 | 17.72639 | -16.11766 | 35640 ft | 470 kts | 18° |
| 2026-04-25 19:19 | 17.74615 | -16.10851 | 35742 ft | 470 kts | 18° |
| 2026-04-25 19:20 | 17.78622 | -16.08994 | 35888 ft | 471 kts | 18° |
| 2026-04-25 19:20 | 17.84659 | -16.06198 | 35942 ft | 477 kts | 18° |
| 2026-04-25 19:21 | 17.90747 | -16.03372 | 36158 ft | 478 kts | 18° |
| 2026-04-25 19:21 | 17.96822 | -16.00549 | 36476 ft | 477 kts | 18° |
| 2026-04-25 19:21 | 17.99859 | -15.99139 | 36591 ft | 477 kts | 18° |
| 2026-04-25 19:22 | 18.02896 | -15.97728 | 36715 ft | 477 kts | 18° |
| 2026-04-25 19:22 | 18.05930 | -15.96318 | 36797 ft | 477 kts | 18° |
| 2026-04-25 19:23 | 18.14632 | -15.91108 | 36822 ft | 484 kts | 30° |
| 2026-04-25 19:23 | 18.22880 | -15.84981 | 36812 ft | 483 kts | 30° |
| 2026-04-25 19:24 | 18.28353 | -15.80972 | 36813 ft | 482 kts | 29° |
| 2026-04-25 19:25 | 18.39404 | -15.72980 | 36807 ft | 482 kts | 29° |
| 2026-04-25 19:25 | 18.44936 | -15.68981 | 36807 ft | 483 kts | 29° |
| 2026-04-25 19:26 | 18.50484 | -15.64965 | 36815 ft | 485 kts | 28° |
| 2026-04-25 19:26 | 18.56047 | -15.60933 | 36805 ft | 486 kts | 28° |
| 2026-04-25 19:27 | 18.60689 | -15.57566 | 36801 ft | 488 kts | 29° |
| 2026-04-25 19:27 | 18.67228 | -15.52819 | 36802 ft | 489 kts | 29° |
| 2026-04-25 19:28 | 18.72838 | -15.48742 | 36801 ft | 490 kts | 29° |
| 2026-04-25 19:28 | 18.78458 | -15.44655 | 36802 ft | 491 kts | 29° |
| 2026-04-25 19:29 | 18.84082 | -15.40562 | 36810 ft | 491 kts | 28° |
| 2026-04-25 19:29 | 18.89711 | -15.36462 | 36800 ft | 492 kts | 28° |
| 2026-04-25 19:30 | 18.95342 | -15.32356 | 36805 ft | 491 kts | 28° |
| 2026-04-25 19:30 | 19.00959 | -15.28257 | 36799 ft | 491 kts | 28° |
| 2026-04-25 19:31 | 19.06578 | -15.24154 | 36815 ft | 490 kts | 28° |
| 2026-04-25 19:31 | 19.12181 | -15.20059 | 36806 ft | 489 kts | 28° |
| 2026-04-25 19:32 | 19.17774 | -15.15968 | 36828 ft | 489 kts | 28° |
| 2026-04-25 19:32 | 19.22430 | -15.12560 | 36822 ft | 489 kts | 28° |
| 2026-04-25 19:33 | 19.28961 | -15.07776 | 36811 ft | 489 kts | 28° |
| 2026-04-25 19:33 | 19.34513 | -15.03705 | 36812 ft | 489 kts | 28° |
| 2026-04-25 19:34 | 19.40098 | -14.99606 | 36819 ft | 489 kts | 28° |
| 2026-04-25 19:34 | 19.45685 | -14.95502 | 36817 ft | 489 kts | 28° |
| 2026-04-25 19:35 | 19.51307 | -14.91369 | 36844 ft | 489 kts | 28° |
| 2026-04-25 19:35 | 19.56872 | -14.87275 | 36829 ft | 490 kts | 28° |
| 2026-04-25 19:36 | 19.62471 | -14.83151 | 36830 ft | 490 kts | 28° |
| 2026-04-25 19:36 | 19.68075 | -14.79021 | 36830 ft | 491 kts | 28° |
| 2026-04-25 19:37 | 19.73681 | -14.74884 | 36830 ft | 491 kts | 28° |
| 2026-04-25 19:37 | 19.79288 | -14.70745 | 36830 ft | 491 kts | 28° |
| 2026-04-25 19:38 | 19.84903 | -14.66595 | 36833 ft | 492 kts | 28° |
| 2026-04-25 19:38 | 19.90610 | -14.62634 | 36838 ft | 486 kts | 21° |
| 2026-04-25 19:39 | 19.96649 | -14.59510 | 36839 ft | 482 kts | 18° |
| 2026-04-25 19:39 | 20.02728 | -14.56479 | 36852 ft | 483 kts | 18° |
| 2026-04-25 19:40 | 20.08814 | -14.53443 | 36838 ft | 483 kts | 18° |
| 2026-04-25 19:40 | 20.14901 | -14.50408 | 36841 ft | 483 kts | 17° |
| 2026-04-25 19:41 | 20.20979 | -14.47375 | 36867 ft | 483 kts | 17° |
| 2026-04-25 19:41 | 20.25052 | -14.45343 | 36842 ft | 483 kts | 17° |
| 2026-04-25 19:42 | 20.33141 | -14.41302 | 36842 ft | 482 kts | 17° |
| 2026-04-25 19:42 | 20.39213 | -14.38266 | 36841 ft | 482 kts | 17° |
| 2026-04-25 19:43 | 20.45289 | -14.35224 | 36849 ft | 482 kts | 17° |
| 2026-04-25 19:43 | 20.51355 | -14.32186 | 36850 ft | 482 kts | 17° |
| 2026-04-25 19:44 | 20.57417 | -14.29146 | 36857 ft | 482 kts | 17° |
| 2026-04-25 19:44 | 20.63489 | -14.26100 | 36858 ft | 482 kts | 17° |
| 2026-04-25 19:45 | 20.69573 | -14.23045 | 36854 ft | 483 kts | 17° |
| 2026-04-25 19:45 | 20.75658 | -14.19985 | 36850 ft | 484 kts | 17° |
| 2026-04-25 19:46 | 20.81745 | -14.16923 | 36856 ft | 484 kts | 17° |
| 2026-04-25 19:46 | 20.87840 | -14.13853 | 36859 ft | 484 kts | 17° |
| 2026-04-25 19:47 | 20.93947 | -14.10775 | 36855 ft | 485 kts | 17° |
| 2026-04-25 19:47 | 21.00047 | -14.07696 | 36855 ft | 485 kts | 17° |
| 2026-04-25 19:48 | 21.06159 | -14.04610 | 36855 ft | 485 kts | 17° |
| 2026-04-25 19:48 | 21.12264 | -14.01523 | 36858 ft | 485 kts | 17° |
| 2026-04-25 19:49 | 21.16309 | -13.99477 | 36859 ft | 485 kts | 17° |
| 2026-04-25 19:49 | 21.24440 | -13.95361 | 36860 ft | 486 kts | 17° |
| 2026-04-25 19:50 | 21.33616 | -13.90709 | 36862 ft | 486 kts | 17° |
| 2026-04-25 19:51 | 21.39730 | -13.87605 | 36865 ft | 486 kts | 17° |
| 2026-04-25 19:51 | 21.45849 | -13.84497 | 36860 ft | 486 kts | 17° |
| 2026-04-25 19:52 | 21.51967 | -13.81386 | 36868 ft | 486 kts | 17° |
| 2026-04-25 19:52 | 21.58082 | -13.78273 | 36884 ft | 487 kts | 16° |
| 2026-04-25 19:53 | 21.64203 | -13.75156 | 36880 ft | 487 kts | 16° |
| 2026-04-25 19:53 | 21.70339 | -13.72026 | 36870 ft | 488 kts | 16° |
| 2026-04-25 19:54 | 21.76463 | -13.68900 | 36876 ft | 488 kts | 16° |
| 2026-04-25 19:54 | 21.82596 | -13.65767 | 36876 ft | 488 kts | 16° |
| 2026-04-25 19:55 | 21.88729 | -13.62630 | 36912 ft | 488 kts | 16° |
| 2026-04-25 19:55 | 21.94880 | -13.59483 | 36887 ft | 489 kts | 16° |
| 2026-04-25 19:56 | 22.01026 | -13.56333 | 36883 ft | 490 kts | 16° |
| 2026-04-25 19:56 | 22.06149 | -13.53706 | 36881 ft | 491 kts | 16° |
| 2026-04-25 19:57 | 22.12316 | -13.50541 | 36887 ft | 491 kts | 16° |
| 2026-04-25 19:57 | 22.18486 | -13.47371 | 36891 ft | 492 kts | 16° |
| 2026-04-25 19:58 | 22.24671 | -13.44190 | 36895 ft | 493 kts | 16° |
| 2026-04-25 19:58 | 22.30858 | -13.41005 | 36892 ft | 493 kts | 16° |
| 2026-04-25 19:59 | 22.37057 | -13.37810 | 36896 ft | 494 kts | 16° |
| 2026-04-25 19:59 | 22.43255 | -13.34613 | 36890 ft | 494 kts | 16° |
| 2026-04-25 20:00 | 22.49459 | -13.31409 | 36906 ft | 494 kts | 16° |
| 2026-04-25 20:00 | 22.55659 | -13.28204 | 36944 ft | 494 kts | 16° |
| 2026-04-25 20:01 | 22.64976 | -13.23383 | 36905 ft | 495 kts | 16° |
| 2026-04-25 20:01 | 22.71184 | -13.20167 | 36903 ft | 495 kts | 16° |
| 2026-04-25 20:02 | 22.77388 | -13.16949 | 36904 ft | 494 kts | 16° |
| 2026-04-25 20:02 | 22.83551 | -13.13748 | 36913 ft | 494 kts | 16° |
| 2026-04-25 20:03 | 22.89748 | -13.10528 | 36947 ft | 494 kts | 16° |
| 2026-04-25 20:03 | 22.95956 | -13.07299 | 36925 ft | 495 kts | 16° |
| 2026-04-25 20:04 | 23.02169 | -13.04063 | 36913 ft | 495 kts | 16° |
| 2026-04-25 20:04 | 23.08377 | -13.00826 | 36912 ft | 495 kts | 16° |
| 2026-04-25 20:05 | 23.14582 | -12.97588 | 36915 ft | 495 kts | 16° |
| 2026-04-25 20:05 | 23.20786 | -12.94347 | 36916 ft | 495 kts | 16° |
| 2026-04-25 20:06 | 23.26991 | -12.91103 | 36914 ft | 495 kts | 16° |
| 2026-04-25 20:06 | 23.33200 | -12.87852 | 36914 ft | 495 kts | 16° |
| 2026-04-25 20:07 | 23.39407 | -12.84600 | 36920 ft | 495 kts | 16° |
| 2026-04-25 20:07 | 23.45621 | -12.81340 | 36917 ft | 495 kts | 16° |
| 2026-04-25 20:08 | 23.51829 | -12.78080 | 36918 ft | 495 kts | 16° |
| 2026-04-25 20:08 | 23.58036 | -12.74817 | 36916 ft | 496 kts | 16° |
| 2026-04-25 20:09 | 23.64248 | -12.71548 | 36923 ft | 496 kts | 16° |
| 2026-04-25 20:09 | 23.70452 | -12.68280 | 36915 ft | 495 kts | 16° |
| 2026-04-25 20:10 | 23.76659 | -12.65006 | 36922 ft | 495 kts | 16° |
| 2026-04-25 20:10 | 23.82860 | -12.61732 | 36915 ft | 495 kts | 16° |
| 2026-04-25 20:11 | 23.89055 | -12.58458 | 36936 ft | 495 kts | 16° |
| 2026-04-25 20:11 | 23.95209 | -12.55203 | 36924 ft | 495 kts | 16° |
| 2026-04-25 20:12 | 24.01399 | -12.51924 | 36920 ft | 494 kts | 16° |
| 2026-04-25 20:12 | 24.06581 | -12.49176 | 36925 ft | 493 kts | 16° |
| 2026-04-25 20:13 | 24.13754 | -12.45370 | 36914 ft | 493 kts | 16° |
| 2026-04-25 20:13 | 24.19925 | -12.42091 | 36917 ft | 492 kts | 16° |
| 2026-04-25 20:14 | 24.26082 | -12.38816 | 36934 ft | 492 kts | 16° |
| 2026-04-25 20:14 | 24.32235 | -12.35540 | 36925 ft | 492 kts | 16° |
| 2026-04-25 20:15 | 24.38388 | -12.32261 | 36924 ft | 491 kts | 16° |
| 2026-04-25 20:15 | 24.44537 | -12.28979 | 36917 ft | 492 kts | 16° |
| 2026-04-25 20:16 | 24.50685 | -12.25695 | 36932 ft | 491 kts | 16° |
| 2026-04-25 20:16 | 24.56838 | -12.22405 | 36932 ft | 492 kts | 16° |
| 2026-04-25 20:17 | 24.62992 | -12.19110 | 36929 ft | 492 kts | 16° |
| 2026-04-25 20:17 | 24.69145 | -12.15812 | 36926 ft | 492 kts | 16° |
| 2026-04-25 20:18 | 24.75303 | -12.12508 | 36927 ft | 492 kts | 16° |
| 2026-04-25 20:18 | 24.81448 | -12.09206 | 36931 ft | 492 kts | 16° |
| 2026-04-25 20:19 | 24.87595 | -12.05902 | 36935 ft | 492 kts | 17° |
| 2026-04-25 20:19 | 24.93748 | -12.02589 | 36931 ft | 491 kts | 17° |
| 2026-04-25 20:20 | 24.99885 | -11.99280 | 36930 ft | 491 kts | 17° |
| 2026-04-25 20:20 | 25.06010 | -11.95975 | 36933 ft | 490 kts | 17° |
| 2026-04-25 20:21 | 25.12134 | -11.92667 | 36937 ft | 489 kts | 17° |
| 2026-04-25 20:21 | 25.18246 | -11.89362 | 36967 ft | 489 kts | 17° |
| 2026-04-25 20:22 | 25.22292 | -11.87173 | 36948 ft | 489 kts | 17° |
| 2026-04-25 20:22 | 25.30461 | -11.82745 | 36937 ft | 488 kts | 17° |
| 2026-04-25 20:23 | 25.36554 | -11.79439 | 36940 ft | 487 kts | 17° |
| 2026-04-25 20:23 | 25.42637 | -11.76134 | 36951 ft | 486 kts | 17° |
| 2026-04-25 20:24 | 25.48705 | -11.72834 | 36989 ft | 486 kts | 17° |
| 2026-04-25 20:24 | 25.54740 | -11.69550 | 36960 ft | 486 kts | 17° |
| 2026-04-25 20:25 | 25.60813 | -11.66240 | 36949 ft | 486 kts | 17° |
| 2026-04-25 20:25 | 25.66880 | -11.62929 | 36960 ft | 486 kts | 17° |
| 2026-04-25 20:26 | 25.72946 | -11.59615 | 36952 ft | 486 kts | 17° |
| 2026-04-25 20:26 | 25.79006 | -11.56301 | 36950 ft | 486 kts | 17° |
| 2026-04-25 20:27 | 25.85073 | -11.52980 | 36960 ft | 486 kts | 17° |
| 2026-04-25 20:27 | 25.91141 | -11.49653 | 36963 ft | 486 kts | 17° |
| 2026-04-25 20:28 | 25.97212 | -11.46321 | 36957 ft | 487 kts | 17° |
| 2026-04-25 20:28 | 26.03280 | -11.42987 | 36961 ft | 486 kts | 17° |
| 2026-04-25 20:29 | 26.09340 | -11.39653 | 36960 ft | 486 kts | 17° |
| 2026-04-25 20:29 | 26.15399 | -11.36326 | 36975 ft | 486 kts | 18° |
| 2026-04-25 20:30 | 26.21465 | -11.32976 | 36968 ft | 486 kts | 18° |
| 2026-04-25 20:30 | 26.27519 | -11.29630 | 36957 ft | 486 kts | 18° |
| 2026-04-25 20:31 | 26.33570 | -11.26284 | 36970 ft | 485 kts | 18° |
| 2026-04-25 20:31 | 26.39619 | -11.22939 | 36965 ft | 485 kts | 18° |
| 2026-04-25 20:32 | 26.45670 | -11.19588 | 36989 ft | 485 kts | 18° |
| 2026-04-25 20:32 | 26.51729 | -11.16236 | 36962 ft | 486 kts | 18° |
| 2026-04-25 20:33 | 26.57780 | -11.12875 | 36959 ft | 486 kts | 18° |
| 2026-04-25 20:33 | 26.61787 | -11.10644 | 36961 ft | 486 kts | 18° |
| 2026-04-25 20:34 | 26.69841 | -11.06158 | 36956 ft | 486 kts | 18° |
| 2026-04-25 20:34 | 26.75887 | -11.02788 | 36980 ft | 486 kts | 19° |
| 2026-04-25 20:35 | 26.81941 | -10.99411 | 36957 ft | 486 kts | 19° |
| 2026-04-25 20:35 | 26.87990 | -10.96032 | 36939 ft | 486 kts | 19° |
| 2026-04-25 20:36 | 26.94029 | -10.92654 | 36950 ft | 485 kts | 19° |
| 2026-04-25 20:36 | 27.00067 | -10.89273 | 36952 ft | 485 kts | 19° |
| 2026-04-25 20:37 | 27.06097 | -10.85893 | 36959 ft | 484 kts | 20° |
| 2026-04-25 20:37 | 27.12121 | -10.82512 | 36947 ft | 484 kts | 20° |
| 2026-04-25 20:38 | 27.18144 | -10.79127 | 36941 ft | 484 kts | 20° |
| 2026-04-25 20:38 | 27.24158 | -10.75744 | 36944 ft | 483 kts | 20° |
| 2026-04-25 20:39 | 27.30197 | -10.72343 | 37144 ft | 485 kts | 20° |
| 2026-04-25 20:39 | 27.33209 | -10.70645 | 37324 ft | 484 kts | 20° |
| 2026-04-25 20:39 | 27.34186 | -10.70094 | 37381 ft | 484 kts | 20° |
| 2026-04-25 20:40 | 27.39228 | -10.67247 | 37633 ft | 484 kts | 20° |
| 2026-04-25 20:40 | 27.42241 | -10.65546 | 37734 ft | 485 kts | 20° |
| 2026-04-25 20:40 | 27.45257 | -10.63842 | 37853 ft | 485 kts | 20° |
| 2026-04-25 20:40 | 27.48269 | -10.62139 | 37936 ft | 485 kts | 20° |
| 2026-04-25 20:41 | 27.54317 | -10.58717 | 37940 ft | 487 kts | 20° |
| 2026-04-25 20:41 | 27.60377 | -10.55284 | 37947 ft | 487 kts | 20° |
| 2026-04-25 20:42 | 27.66432 | -10.51851 | 37952 ft | 487 kts | 20° |
| 2026-04-25 20:42 | 27.72563 | -10.48800 | 37969 ft | 483 kts | 16° |
| 2026-04-25 20:43 | 27.78784 | -10.45944 | 37958 ft | 482 kts | 16° |
| 2026-04-25 20:43 | 27.84993 | -10.43091 | 37957 ft | 482 kts | 16° |
| 2026-04-25 20:44 | 27.91181 | -10.40205 | 37951 ft | 480 kts | 17° |
| 2026-04-25 20:44 | 27.97348 | -10.37305 | 37949 ft | 479 kts | 17° |
| 2026-04-25 20:45 | 28.03501 | -10.34408 | 37957 ft | 479 kts | 17° |
| 2026-04-25 20:45 | 28.09641 | -10.31515 | 37950 ft | 478 kts | 17° |
| 2026-04-25 20:46 | 28.14739 | -10.29104 | 37956 ft | 477 kts | 17° |
| 2026-04-25 20:46 | 28.20861 | -10.26206 | 37942 ft | 477 kts | 17° |
| 2026-04-25 20:47 | 28.26976 | -10.23311 | 37946 ft | 476 kts | 17° |
| 2026-04-25 20:47 | 28.33092 | -10.20413 | 37957 ft | 476 kts | 18° |
| 2026-04-25 20:48 | 28.39210 | -10.17511 | 37945 ft | 477 kts | 18° |
| 2026-04-25 20:48 | 28.45324 | -10.14607 | 37947 ft | 477 kts | 18° |
| 2026-04-25 20:49 | 28.51445 | -10.11695 | 37943 ft | 477 kts | 18° |
| 2026-04-25 20:49 | 28.57572 | -10.08777 | 37954 ft | 477 kts | 18° |
| 2026-04-25 20:50 | 28.63704 | -10.05853 | 37947 ft | 478 kts | 19° |
| 2026-04-25 20:50 | 28.69843 | -10.02921 | 37946 ft | 478 kts | 19° |
| 2026-04-25 20:51 | 28.75976 | -9.99988 | 37960 ft | 478 kts | 19° |
| 2026-04-25 20:51 | 28.82115 | -9.97050 | 37944 ft | 479 kts | 19° |
| 2026-04-25 20:52 | 28.87215 | -9.94606 | 37941 ft | 478 kts | 19° |
| 2026-04-25 20:52 | 28.94391 | -9.91163 | 37948 ft | 478 kts | 19° |
| 2026-04-25 20:53 | 29.00520 | -9.88217 | 37946 ft | 478 kts | 19° |
| 2026-04-25 20:53 | 29.06639 | -9.85272 | 37948 ft | 477 kts | 19° |
| 2026-04-25 20:54 | 29.12748 | -9.82328 | 37941 ft | 476 kts | 19° |
| 2026-04-25 20:54 | 29.18796 | -9.79410 | 37971 ft | 475 kts | 20° |
| 2026-04-25 20:55 | 29.24877 | -9.76473 | 37954 ft | 474 kts | 20° |
| 2026-04-25 20:55 | 29.30952 | -9.73535 | 37938 ft | 474 kts | 20° |
| 2026-04-25 20:56 | 29.37018 | -9.70597 | 37949 ft | 473 kts | 20° |
| 2026-04-25 20:56 | 29.43076 | -9.67659 | 37958 ft | 472 kts | 20° |
| 2026-04-25 20:57 | 29.49126 | -9.64722 | 37969 ft | 472 kts | 20° |
| 2026-04-25 20:57 | 29.55179 | -9.61779 | 37949 ft | 472 kts | 20° |
| 2026-04-25 20:58 | 29.61220 | -9.58838 | 37947 ft | 472 kts | 20° |
| 2026-04-25 20:58 | 29.67258 | -9.55895 | 37948 ft | 471 kts | 20° |
| 2026-04-25 20:59 | 29.73284 | -9.52953 | 37934 ft | 471 kts | 20° |
| 2026-04-25 20:59 | 29.79321 | -9.50003 | 37953 ft | 471 kts | 21° |
| 2026-04-25 21:00 | 29.84330 | -9.47552 | 37923 ft | 471 kts | 21° |
| 2026-04-25 21:01 | 29.94392 | -9.42620 | 37917 ft | 471 kts | 21° |
| 2026-04-25 21:01 | 30.00411 | -9.39665 | 37903 ft | 470 kts | 21° |
| 2026-04-25 21:02 | 30.06435 | -9.36703 | 37900 ft | 470 kts | 21° |
| 2026-04-25 21:02 | 30.12455 | -9.33740 | 37891 ft | 471 kts | 21° |
| 2026-04-25 21:03 | 30.18478 | -9.30771 | 37883 ft | 471 kts | 21° |
| 2026-04-25 21:03 | 30.24461 | -9.27817 | 37879 ft | 470 kts | 21° |
| 2026-04-25 21:04 | 30.30477 | -9.24844 | 37877 ft | 470 kts | 21° |
| 2026-04-25 21:04 | 30.36493 | -9.21866 | 37883 ft | 470 kts | 21° |
| 2026-04-25 21:05 | 30.42505 | -9.18887 | 37885 ft | 470 kts | 21° |
| 2026-04-25 21:05 | 30.48516 | -9.15904 | 37886 ft | 470 kts | 21° |
| 2026-04-25 21:06 | 30.54526 | -9.12917 | 37889 ft | 470 kts | 21° |
| 2026-04-25 21:06 | 30.60531 | -9.09929 | 37886 ft | 470 kts | 21° |
| 2026-04-25 21:07 | 30.66538 | -9.06936 | 37908 ft | 470 kts | 21° |
| 2026-04-25 21:07 | 30.72549 | -9.03937 | 37904 ft | 470 kts | 21° |
| 2026-04-25 21:08 | 30.78565 | -9.00931 | 37909 ft | 471 kts | 21° |
| 2026-04-25 21:08 | 30.84583 | -8.97920 | 37914 ft | 471 kts | 21° |
| 2026-04-25 21:09 | 30.93622 | -8.93390 | 37948 ft | 472 kts | 21° |
| 2026-04-25 21:09 | 30.99649 | -8.90364 | 37949 ft | 472 kts | 21° |
| 2026-04-25 21:10 | 31.05667 | -8.87338 | 37948 ft | 471 kts | 21° |
| 2026-04-25 21:10 | 31.11680 | -8.84311 | 37959 ft | 470 kts | 21° |
| 2026-04-25 21:11 | 31.17677 | -8.81288 | 37956 ft | 469 kts | 21° |
| 2026-04-25 21:11 | 31.23623 | -8.78286 | 37963 ft | 468 kts | 22° |
| 2026-04-25 21:12 | 31.29589 | -8.75270 | 37952 ft | 467 kts | 22° |
| 2026-04-25 21:12 | 31.34582 | -8.72743 | 37946 ft | 466 kts | 22° |
| 2026-04-25 21:13 | 31.41487 | -8.69243 | 37943 ft | 465 kts | 22° |
| 2026-04-25 21:13 | 31.47414 | -8.66234 | 37944 ft | 464 kts | 22° |
| 2026-04-25 21:14 | 31.53342 | -8.63221 | 37948 ft | 465 kts | 22° |
| 2026-04-25 21:14 | 31.59272 | -8.60202 | 37938 ft | 465 kts | 22° |
| 2026-04-25 21:15 | 31.65216 | -8.57172 | 37938 ft | 466 kts | 22° |
| 2026-04-25 21:15 | 31.71165 | -8.54136 | 37940 ft | 466 kts | 22° |
| 2026-04-25 21:16 | 31.77118 | -8.51093 | 37941 ft | 467 kts | 22° |
| 2026-04-25 21:16 | 31.83081 | -8.48041 | 37951 ft | 468 kts | 22° |
| 2026-04-25 21:17 | 31.89066 | -8.44973 | 37951 ft | 469 kts | 22° |
| 2026-04-25 21:17 | 31.95050 | -8.41901 | 37955 ft | 470 kts | 22° |
| 2026-04-25 21:18 | 32.01050 | -8.38816 | 37958 ft | 471 kts | 22° |
| 2026-04-25 21:18 | 32.07056 | -8.35724 | 37964 ft | 471 kts | 22° |
| 2026-04-25 21:19 | 32.13061 | -8.32628 | 37967 ft | 471 kts | 22° |
| 2026-04-25 21:19 | 32.19065 | -8.29528 | 37968 ft | 471 kts | 22° |
| 2026-04-25 21:20 | 32.23039 | -8.27474 | 37957 ft | 471 kts | 22° |
| 2026-04-25 21:20 | 32.31062 | -8.23320 | 37970 ft | 471 kts | 22° |
| 2026-04-25 21:21 | 32.37060 | -8.20210 | 37985 ft | 471 kts | 22° |
| 2026-04-25 21:21 | 32.43057 | -8.17096 | 37970 ft | 471 kts | 22° |
| 2026-04-25 21:22 | 32.49047 | -8.13980 | 37974 ft | 470 kts | 22° |
| 2026-04-25 21:22 | 32.54995 | -8.10882 | 37968 ft | 470 kts | 22° |
| 2026-04-25 21:23 | 32.60977 | -8.07762 | 37972 ft | 470 kts | 22° |
| 2026-04-25 21:23 | 32.66959 | -8.04638 | 37968 ft | 470 kts | 22° |
| 2026-04-25 21:24 | 32.72941 | -8.01508 | 37964 ft | 469 kts | 22° |
| 2026-04-25 21:24 | 32.78911 | -7.98381 | 37965 ft | 469 kts | 22° |
| 2026-04-25 21:25 | 32.84876 | -7.95251 | 37970 ft | 469 kts | 22° |
| 2026-04-25 21:25 | 32.90842 | -7.92116 | 37988 ft | 468 kts | 22° |
| 2026-04-25 21:26 | 32.96805 | -7.88979 | 37976 ft | 469 kts | 22° |
| 2026-04-25 21:26 | 33.02779 | -7.85830 | 37986 ft | 471 kts | 22° |
| 2026-04-25 21:27 | 33.08796 | -7.82656 | 37987 ft | 475 kts | 22° |
| 2026-04-25 21:27 | 33.14861 | -7.79451 | 37997 ft | 478 kts | 22° |
| 2026-04-25 21:28 | 33.20948 | -7.76228 | 38001 ft | 479 kts | 22° |
| 2026-04-25 21:28 | 33.27049 | -7.72993 | 38013 ft | 480 kts | 22° |
| 2026-04-25 21:29 | 33.33152 | -7.69752 | 38018 ft | 479 kts | 22° |
| 2026-04-25 21:29 | 33.39240 | -7.66513 | 38019 ft | 478 kts | 22° |
| 2026-04-25 21:30 | 33.45311 | -7.63280 | 38033 ft | 477 kts | 22° |
| 2026-04-25 21:30 | 33.50350 | -7.60593 | 38000 ft | 476 kts | 22° |
| 2026-04-25 21:31 | 33.57402 | -7.56827 | 37987 ft | 474 kts | 21° |
| 2026-04-25 21:31 | 33.63407 | -7.53612 | 37988 ft | 472 kts | 21° |
| 2026-04-25 21:32 | 33.69355 | -7.50423 | 37992 ft | 471 kts | 21° |
| 2026-04-25 21:32 | 33.75325 | -7.47220 | 38007 ft | 470 kts | 21° |
| 2026-04-25 21:33 | 33.81286 | -7.44017 | 37991 ft | 469 kts | 21° |
| 2026-04-25 21:33 | 33.87242 | -7.40810 | 37990 ft | 468 kts | 21° |
| 2026-04-25 21:34 | 33.93178 | -7.37608 | 38009 ft | 468 kts | 21° |
| 2026-04-25 21:34 | 33.99133 | -7.34392 | 38009 ft | 468 kts | 21° |
| 2026-04-25 21:35 | 34.04080 | -7.31716 | 38031 ft | 468 kts | 21° |
| 2026-04-25 21:35 | 34.10019 | -7.28500 | 38023 ft | 468 kts | 21° |
| 2026-04-25 21:36 | 34.15957 | -7.25280 | 38018 ft | 467 kts | 21° |
| 2026-04-25 21:36 | 34.21923 | -7.22039 | 38019 ft | 467 kts | 21° |
| 2026-04-25 21:37 | 34.26845 | -7.19361 | 38042 ft | 467 kts | 21° |
| 2026-04-25 21:37 | 34.33721 | -7.15614 | 38024 ft | 466 kts | 21° |
| 2026-04-25 21:38 | 34.39623 | -7.12393 | 38008 ft | 464 kts | 21° |
| 2026-04-25 21:38 | 34.45505 | -7.09178 | 38015 ft | 463 kts | 21° |
| 2026-04-25 21:39 | 34.51370 | -7.05967 | 38012 ft | 463 kts | 21° |
| 2026-04-25 21:39 | 34.57234 | -7.02753 | 38016 ft | 462 kts | 21° |
| 2026-04-25 21:40 | 34.63084 | -6.99541 | 38009 ft | 461 kts | 21° |
| 2026-04-25 21:40 | 34.68919 | -6.96330 | 37999 ft | 460 kts | 21° |
| 2026-04-25 21:41 | 34.74747 | -6.93119 | 38006 ft | 460 kts | 21° |
| 2026-04-25 21:41 | 34.80570 | -6.89907 | 38022 ft | 459 kts | 21° |
| 2026-04-25 21:42 | 34.86385 | -6.86694 | 38008 ft | 459 kts | 21° |
| 2026-04-25 21:42 | 34.92188 | -6.83482 | 37992 ft | 458 kts | 21° |
| 2026-04-25 21:43 | 34.97980 | -6.80271 | 37989 ft | 457 kts | 21° |
| 2026-04-25 21:43 | 35.03763 | -6.77061 | 37992 ft | 456 kts | 21° |
| 2026-04-25 21:44 | 35.09529 | -6.73855 | 38007 ft | 455 kts | 21° |
| 2026-04-25 21:45 | 35.18114 | -6.69072 | 37988 ft | 453 kts | 21° |
| 2026-04-25 21:45 | 35.23845 | -6.65872 | 37992 ft | 452 kts | 21° |
| 2026-04-25 21:46 | 35.29566 | -6.62674 | 38000 ft | 452 kts | 21° |
| 2026-04-25 21:46 | 35.35284 | -6.59473 | 38008 ft | 451 kts | 21° |
| 2026-04-25 21:47 | 35.40989 | -6.56274 | 38004 ft | 451 kts | 21° |
| 2026-04-25 21:47 | 35.46690 | -6.53072 | 37988 ft | 450 kts | 21° |
| 2026-04-25 21:48 | 35.52388 | -6.49867 | 37997 ft | 450 kts | 21° |
| 2026-04-25 21:48 | 35.58079 | -6.46661 | 38016 ft | 450 kts | 21° |
| 2026-04-25 21:49 | 35.63772 | -6.43449 | 38012 ft | 450 kts | 21° |
| 2026-04-25 21:49 | 35.69467 | -6.40231 | 38018 ft | 450 kts | 21° |
| 2026-04-25 21:50 | 35.75158 | -6.37012 | 38010 ft | 450 kts | 21° |
| 2026-04-25 21:50 | 35.80851 | -6.33785 | 38024 ft | 450 kts | 21° |
| 2026-04-25 21:51 | 35.86664 | -6.31049 | 38040 ft | 446 kts | 13° |
| 2026-04-25 21:51 | 35.92615 | -6.29041 | 38063 ft | 446 kts | 12° |
| 2026-04-25 21:52 | 35.98647 | -6.27041 | 38056 ft | 446 kts | 12° |
| 2026-04-25 21:52 | 36.04594 | -6.25017 | 38059 ft | 446 kts | 12° |
| 2026-04-25 21:53 | 36.10573 | -6.22948 | 38081 ft | 447 kts | 13° |
| 2026-04-25 21:53 | 36.16557 | -6.20866 | 38066 ft | 447 kts | 13° |
| 2026-04-25 21:54 | 36.22533 | -6.18783 | 38071 ft | 446 kts | 13° |
| 2026-04-25 21:54 | 36.28510 | -6.16698 | 38070 ft | 446 kts | 13° |
| 2026-04-25 21:55 | 36.34486 | -6.14610 | 38088 ft | 446 kts | 13° |
| 2026-04-25 21:55 | 36.40455 | -6.12522 | 38059 ft | 446 kts | 13° |
| 2026-04-25 21:56 | 36.46425 | -6.10430 | 38077 ft | 445 kts | 13° |
| 2026-04-25 21:56 | 36.52389 | -6.08337 | 38082 ft | 445 kts | 13° |
| 2026-04-25 21:57 | 36.58355 | -6.06240 | 38074 ft | 446 kts | 13° |
| 2026-04-25 21:57 | 36.64326 | -6.04138 | 38084 ft | 446 kts | 13° |
| 2026-04-25 21:58 | 36.70293 | -6.02033 | 38077 ft | 446 kts | 13° |
| 2026-04-25 21:58 | 36.76264 | -5.99924 | 38069 ft | 446 kts | 13° |
| 2026-04-25 21:59 | 36.82234 | -5.97812 | 38079 ft | 446 kts | 13° |
| 2026-04-25 21:59 | 36.88203 | -5.95697 | 38072 ft | 446 kts | 13° |
| 2026-04-25 22:00 | 36.97172 | -5.92512 | 38066 ft | 447 kts | 13° |
| 2026-04-25 22:00 | 37.03152 | -5.90384 | 38053 ft | 447 kts | 13° |
| 2026-04-25 22:01 | 37.09131 | -5.88254 | 38052 ft | 447 kts | 14° |
| 2026-04-25 22:01 | 37.14105 | -5.86479 | 38043 ft | 447 kts | 14° |
| 2026-04-25 22:02 | 37.21058 | -5.83994 | 38054 ft | 447 kts | 14° |
| 2026-04-25 22:02 | 37.27046 | -5.81850 | 38068 ft | 448 kts | 14° |
| 2026-04-25 22:03 | 37.33038 | -5.79703 | 38077 ft | 448 kts | 14° |
| 2026-04-25 22:03 | 37.39028 | -5.77553 | 38075 ft | 448 kts | 14° |
| 2026-04-25 22:04 | 37.44951 | -5.75079 | 38067 ft | 450 kts | 22° |
| 2026-04-25 22:04 | 37.50597 | -5.71644 | 38066 ft | 451 kts | 24° |
| 2026-04-25 22:05 | 37.56233 | -5.68121 | 38060 ft | 452 kts | 24° |
| 2026-04-25 22:05 | 37.61882 | -5.64648 | 38066 ft | 452 kts | 24° |
| 2026-04-25 22:06 | 37.67559 | -5.61193 | 38055 ft | 453 kts | 24° |
| 2026-04-25 22:06 | 37.73236 | -5.57744 | 38060 ft | 453 kts | 24° |
| 2026-04-25 22:07 | 37.77951 | -5.54875 | 38060 ft | 453 kts | 24° |
| 2026-04-25 22:07 | 37.84588 | -5.50828 | 38065 ft | 453 kts | 24° |
| 2026-04-25 22:08 | 37.90258 | -5.47363 | 38062 ft | 453 kts | 24° |
| 2026-04-25 22:08 | 37.95925 | -5.43894 | 38066 ft | 452 kts | 24° |
| 2026-04-25 22:09 | 38.01589 | -5.40420 | 38070 ft | 452 kts | 24° |
| 2026-04-25 22:09 | 38.07213 | -5.36966 | 38072 ft | 452 kts | 25° |
| 2026-04-25 22:10 | 38.12868 | -5.33486 | 38074 ft | 451 kts | 25° |
| 2026-04-25 22:10 | 38.18523 | -5.30001 | 38072 ft | 452 kts | 25° |
| 2026-04-25 22:11 | 38.24180 | -5.26508 | 38073 ft | 452 kts | 25° |
| 2026-04-25 22:11 | 38.29842 | -5.23007 | 38073 ft | 452 kts | 25° |
| 2026-04-25 22:12 | 38.35498 | -5.19503 | 38075 ft | 452 kts | 25° |
| 2026-04-25 22:12 | 38.40205 | -5.16583 | 38074 ft | 453 kts | 25° |
| 2026-04-25 22:13 | 38.46823 | -5.12472 | 38073 ft | 453 kts | 25° |
| 2026-04-25 22:13 | 38.52511 | -5.09026 | 38071 ft | 452 kts | 22° |
| 2026-04-25 22:14 | 38.58344 | -5.06019 | 38082 ft | 452 kts | 20° |
| 2026-04-25 22:14 | 38.61189 | -5.04313 | 38066 ft | 453 kts | 31° |
| 2026-04-25 22:14 | 38.63836 | -5.02121 | 38086 ft | 454 kts | 33° |
| 2026-04-25 22:15 | 38.69044 | -4.97552 | 38077 ft | 454 kts | 33° |
| 2026-04-25 22:16 | 38.76876 | -4.90711 | 38077 ft | 454 kts | 33° |
| 2026-04-25 22:16 | 38.82122 | -4.86194 | 38084 ft | 454 kts | 33° |
| 2026-04-25 22:17 | 38.87376 | -4.81682 | 38080 ft | 454 kts | 33° |
| 2026-04-25 22:17 | 38.92621 | -4.77172 | 38081 ft | 454 kts | 33° |
| 2026-04-25 22:18 | 38.97868 | -4.72650 | 38084 ft | 454 kts | 33° |
| 2026-04-25 22:18 | 39.03102 | -4.68130 | 38091 ft | 454 kts | 33° |
| 2026-04-25 22:19 | 39.08338 | -4.63602 | 38092 ft | 453 kts | 33° |
| 2026-04-25 22:19 | 39.13567 | -4.59069 | 38094 ft | 453 kts | 33° |
| 2026-04-25 22:20 | 39.18794 | -4.54528 | 38100 ft | 453 kts | 33° |
| 2026-04-25 22:20 | 39.23983 | -4.50013 | 38095 ft | 453 kts | 33° |
| 2026-04-25 22:21 | 39.29204 | -4.45463 | 38103 ft | 453 kts | 33° |
| 2026-04-25 22:21 | 39.34424 | -4.40905 | 38106 ft | 453 kts | 33° |
| 2026-04-25 22:22 | 39.39640 | -4.36342 | 38107 ft | 453 kts | 33° |
| 2026-04-25 22:22 | 39.44860 | -4.31767 | 38108 ft | 453 kts | 33° |
| 2026-04-25 22:23 | 39.50074 | -4.27190 | 38112 ft | 453 kts | 34° |
| 2026-04-25 22:23 | 39.55287 | -4.22603 | 38111 ft | 453 kts | 34° |
| 2026-04-25 22:24 | 39.60504 | -4.18006 | 38110 ft | 453 kts | 34° |
| 2026-04-25 22:24 | 39.64865 | -4.14157 | 38113 ft | 453 kts | 34° |
| 2026-04-25 22:25 | 39.70046 | -4.09575 | 38109 ft | 453 kts | 34° |
| 2026-04-25 22:25 | 39.75283 | -4.04935 | 38113 ft | 453 kts | 34° |
| 2026-04-25 22:26 | 39.80456 | -4.00344 | 38104 ft | 453 kts | 34° |
| 2026-04-25 22:26 | 39.85658 | -3.95718 | 38109 ft | 453 kts | 34° |
| 2026-04-25 22:27 | 39.90895 | -3.91053 | 38109 ft | 453 kts | 34° |
| 2026-04-25 22:27 | 39.96056 | -3.86447 | 38114 ft | 453 kts | 34° |
| 2026-04-25 22:28 | 40.01249 | -3.81804 | 38121 ft | 453 kts | 34° |
| 2026-04-25 22:28 | 40.06447 | -3.77148 | 38115 ft | 453 kts | 34° |
| 2026-04-25 22:29 | 40.11645 | -3.72482 | 38144 ft | 454 kts | 34° |
| 2026-04-25 22:29 | 40.16845 | -3.67804 | 38157 ft | 454 kts | 34° |
| 2026-04-25 22:30 | 40.24653 | -3.60767 | 38156 ft | 454 kts | 34° |
| 2026-04-25 22:30 | 40.28982 | -3.56856 | 38157 ft | 455 kts | 34° |
| 2026-04-25 22:31 | 40.35067 | -3.51348 | 38148 ft | 455 kts | 34° |
| 2026-04-25 22:31 | 40.40277 | -3.46621 | 38163 ft | 455 kts | 34° |
| 2026-04-25 22:32 | 40.45491 | -3.41885 | 38155 ft | 456 kts | 34° |
| 2026-04-25 22:32 | 40.50705 | -3.37138 | 38155 ft | 456 kts | 34° |
| 2026-04-25 22:33 | 40.55924 | -3.32376 | 38161 ft | 457 kts | 34° |
| 2026-04-25 22:33 | 40.61144 | -3.27604 | 38155 ft | 457 kts | 34° |
| 2026-04-25 22:34 | 40.66355 | -3.22831 | 38152 ft | 457 kts | 34° |
| 2026-04-25 22:34 | 40.71571 | -3.18045 | 38149 ft | 457 kts | 34° |
| 2026-04-25 22:35 | 40.76792 | -3.13245 | 38155 ft | 457 kts | 34° |
| 2026-04-25 22:35 | 40.82010 | -3.08438 | 38154 ft | 457 kts | 34° |
| 2026-04-25 22:36 | 40.87218 | -3.03631 | 38159 ft | 457 kts | 34° |
| 2026-04-25 22:36 | 40.92432 | -2.98809 | 38152 ft | 457 kts | 34° |
| 2026-04-25 22:37 | 40.97642 | -2.93982 | 38162 ft | 458 kts | 34° |
| 2026-04-25 22:37 | 41.02860 | -2.89137 | 38160 ft | 458 kts | 34° |
| 2026-04-25 22:38 | 41.08035 | -2.84323 | 38167 ft | 458 kts | 34° |
| 2026-04-25 22:38 | 41.13241 | -2.79470 | 38164 ft | 457 kts | 34° |
| 2026-04-25 22:39 | 41.18445 | -2.74610 | 38165 ft | 457 kts | 34° |
| 2026-04-25 22:39 | 41.23637 | -2.69752 | 38161 ft | 456 kts | 34° |
| 2026-04-25 22:40 | 41.28827 | -2.64887 | 38157 ft | 457 kts | 34° |
| 2026-04-25 22:40 | 41.34019 | -2.60011 | 38178 ft | 457 kts | 34° |
| 2026-04-25 22:41 | 41.39209 | -2.55126 | 38166 ft | 457 kts | 34° |
| 2026-04-25 22:41 | 41.44388 | -2.50239 | 38167 ft | 457 kts | 34° |
| 2026-04-25 22:42 | 41.49566 | -2.45343 | 38171 ft | 456 kts | 34° |
| 2026-04-25 22:42 | 41.54752 | -2.40431 | 38168 ft | 456 kts | 34° |
| 2026-04-25 22:43 | 41.59927 | -2.35523 | 38172 ft | 456 kts | 34° |
| 2026-04-25 22:43 | 41.65096 | -2.30608 | 38177 ft | 456 kts | 34° |
| 2026-04-25 22:44 | 41.70256 | -2.25691 | 38176 ft | 455 kts | 34° |
| 2026-04-25 22:44 | 41.75415 | -2.20768 | 38175 ft | 455 kts | 34° |
| 2026-04-25 22:45 | 41.80570 | -2.15834 | 38180 ft | 455 kts | 34° |
| 2026-04-25 22:45 | 41.85721 | -2.10896 | 38190 ft | 455 kts | 34° |
| 2026-04-25 22:46 | 41.90873 | -2.05948 | 38166 ft | 455 kts | 34° |
| 2026-04-25 22:46 | 41.96018 | -2.00996 | 38194 ft | 455 kts | 34° |
| 2026-04-25 22:47 | 42.01168 | -1.96030 | 38162 ft | 456 kts | 34° |
| 2026-04-25 22:47 | 42.06316 | -1.91055 | 38167 ft | 456 kts | 34° |
| 2026-04-25 22:48 | 42.11465 | -1.86069 | 38172 ft | 456 kts | 34° |
| 2026-04-25 22:48 | 42.16575 | -1.81111 | 38160 ft | 456 kts | 35° |
| 2026-04-25 22:49 | 42.21754 | -1.76079 | 38156 ft | 456 kts | 34° |
| 2026-04-25 22:49 | 42.26866 | -1.71099 | 38162 ft | 456 kts | 35° |
| 2026-04-25 22:50 | 42.32016 | -1.66070 | 38159 ft | 457 kts | 35° |
| 2026-04-25 22:50 | 42.37166 | -1.61032 | 38161 ft | 457 kts | 35° |
| 2026-04-25 22:51 | 42.42320 | -1.55981 | 38164 ft | 458 kts | 35° |
| 2026-04-25 22:51 | 42.47472 | -1.50922 | 38170 ft | 458 kts | 35° |
| 2026-04-25 22:52 | 42.52635 | -1.45843 | 38182 ft | 459 kts | 35° |
| 2026-04-25 22:52 | 42.56925 | -1.41613 | 38183 ft | 459 kts | 35° |
| 2026-04-25 22:53 | 42.60128 | -1.37793 | 38174 ft | 461 kts | 51° |
| 2026-04-25 22:53 | 42.61861 | -1.34139 | 38194 ft | 462 kts | 64° |
| 2026-04-25 22:53 | 42.62951 | -1.30034 | 38185 ft | 464 kts | 77° |
| 2026-04-25 22:53 | 42.63624 | -1.25741 | 38183 ft | 465 kts | 78° |
| 2026-04-25 22:54 | 42.64874 | -1.17128 | 38167 ft | 466 kts | 78° |
| 2026-04-25 22:54 | 42.66162 | -1.08491 | 38166 ft | 467 kts | 78° |
| 2026-04-25 22:55 | 42.67492 | -0.99862 | 38175 ft | 467 kts | 78° |
| 2026-04-25 22:55 | 42.68834 | -0.91216 | 38179 ft | 468 kts | 78° |
| 2026-04-25 22:56 | 42.70169 | -0.82568 | 37945 ft | 467 kts | 78° |
| 2026-04-25 22:56 | 42.70830 | -0.78266 | 37659 ft | 462 kts | 78° |
| 2026-04-25 22:56 | 42.71484 | -0.73998 | 37379 ft | 459 kts | 78° |
| 2026-04-25 22:57 | 42.72128 | -0.69777 | 36926 ft | 455 kts | 78° |
| 2026-04-25 22:57 | 42.72771 | -0.65556 | 36209 ft | 457 kts | 78° |
| 2026-04-25 22:57 | 42.73416 | -0.61310 | 35416 ft | 462 kts | 78° |
| 2026-04-25 22:57 | 42.74070 | -0.57004 | 34628 ft | 466 kts | 78° |
| 2026-04-25 22:58 | 42.74726 | -0.52668 | 33812 ft | 470 kts | 78° |
| 2026-04-25 22:58 | 42.75385 | -0.48298 | 32993 ft | 473 kts | 78° |
| 2026-04-25 22:58 | 42.76044 | -0.43918 | 32380 ft | 471 kts | 78° |
| 2026-04-25 22:58 | 42.76686 | -0.39639 | 31949 ft | 465 kts | 78° |
| 2026-04-25 22:59 | 42.77326 | -0.35357 | 31523 ft | 459 kts | 78° |
| 2026-04-25 22:59 | 42.77960 | -0.31111 | 31024 ft | 456 kts | 78° |
| 2026-04-25 22:59 | 42.78586 | -0.26905 | 30570 ft | 452 kts | 78° |
| 2026-04-25 22:59 | 42.79269 | -0.22747 | 29994 ft | 449 kts | 73° |
| 2026-04-25 23:00 | 42.80387 | -0.18796 | 29385 ft | 446 kts | 64° |
| 2026-04-25 23:00 | 42.81916 | -0.15140 | 28777 ft | 443 kts | 54° |
| 2026-04-25 23:00 | 42.83745 | -0.11777 | 28162 ft | 441 kts | 52° |
| 2026-04-25 23:00 | 42.85613 | -0.08465 | 27534 ft | 440 kts | 52° |
| 2026-04-25 23:01 | 42.87471 | -0.05180 | 26914 ft | 438 kts | 52° |
| 2026-04-25 23:01 | 42.89319 | -0.01887 | 26323 ft | 435 kts | 52° |
| 2026-04-25 23:01 | 42.91142 | 0.01395 | 25745 ft | 433 kts | 52° |
| 2026-04-25 23:01 | 42.92948 | 0.04671 | 25166 ft | 431 kts | 52° |
| 2026-04-25 23:02 | 42.94744 | 0.07943 | 24601 ft | 429 kts | 53° |
| 2026-04-25 23:02 | 42.96523 | 0.11193 | 24053 ft | 427 kts | 53° |
| 2026-04-25 23:02 | 42.98294 | 0.14430 | 23471 ft | 424 kts | 52° |
| 2026-04-25 23:02 | 43.00053 | 0.17647 | 22851 ft | 422 kts | 53° |
| 2026-04-25 23:03 | 43.01800 | 0.20845 | 22272 ft | 418 kts | 53° |
| 2026-04-25 23:03 | 43.03531 | 0.24019 | 21728 ft | 415 kts | 53° |
| 2026-04-25 23:03 | 43.05246 | 0.27168 | 21196 ft | 411 kts | 53° |
| 2026-04-25 23:03 | 43.06946 | 0.30289 | 20672 ft | 407 kts | 53° |
| 2026-04-25 23:04 | 43.08629 | 0.33380 | 20159 ft | 404 kts | 53° |
| 2026-04-25 23:04 | 43.09736 | 0.35415 | 19822 ft | 401 kts | 53° |
| 2026-04-25 23:04 | 43.11952 | 0.39490 | 19159 ft | 397 kts | 53° |
| 2026-04-25 23:04 | 43.13597 | 0.42518 | 18680 ft | 394 kts | 53° |
| 2026-04-25 23:05 | 43.15218 | 0.45506 | 18281 ft | 388 kts | 53° |
| 2026-04-25 23:05 | 43.16816 | 0.48455 | 17883 ft | 382 kts | 53° |
| 2026-04-25 23:05 | 43.18386 | 0.51355 | 17487 ft | 377 kts | 53° |
| 2026-04-25 23:05 | 43.19935 | 0.54217 | 17095 ft | 372 kts | 53° |
| 2026-04-25 23:06 | 43.21464 | 0.57046 | 16759 ft | 365 kts | 53° |
| 2026-04-25 23:06 | 43.22955 | 0.59808 | 16530 ft | 357 kts | 53° |
| 2026-04-25 23:06 | 43.24415 | 0.62513 | 16302 ft | 349 kts | 53° |
| 2026-04-25 23:06 | 43.25844 | 0.65163 | 16093 ft | 341 kts | 53° |
| 2026-04-25 23:07 | 43.27239 | 0.67754 | 15894 ft | 334 kts | 53° |
| 2026-04-25 23:07 | 43.28600 | 0.70285 | 15701 ft | 327 kts | 53° |
| 2026-04-25 23:07 | 43.29931 | 0.72779 | 15510 ft | 320 kts | 56° |
| 2026-04-25 23:07 | 43.30848 | 0.75500 | 15362 ft | 312 kts | 76° |
| 2026-04-25 23:08 | 43.31079 | 0.78423 | 15173 ft | 307 kts | 91° |
| 2026-04-25 23:08 | 43.30998 | 0.81384 | 14606 ft | 315 kts | 94° |
| 2026-04-25 23:08 | 43.30858 | 0.84404 | 14155 ft | 320 kts | 94° |
| 2026-04-25 23:08 | 43.30711 | 0.87452 | 13811 ft | 318 kts | 94° |
| 2026-04-25 23:09 | 43.30572 | 0.90461 | 13516 ft | 315 kts | 94° |
| 2026-04-25 23:09 | 43.30442 | 0.93451 | 13194 ft | 313 kts | 94° |
| 2026-04-25 23:09 | 43.30319 | 0.96423 | 12858 ft | 311 kts | 93° |
| 2026-04-25 23:09 | 43.30199 | 0.99383 | 12532 ft | 309 kts | 93° |
| 2026-04-25 23:10 | 43.30082 | 1.02321 | 12219 ft | 307 kts | 93° |
| 2026-04-25 23:10 | 43.30005 | 1.04255 | 12010 ft | 306 kts | 93° |
| 2026-04-25 23:10 | 43.29889 | 1.07160 | 11686 ft | 304 kts | 93° |
| 2026-04-25 23:10 | 43.29775 | 1.10054 | 11384 ft | 303 kts | 93° |
| 2026-04-25 23:11 | 43.29660 | 1.12926 | 11088 ft | 301 kts | 93° |
| 2026-04-25 23:11 | 43.29545 | 1.15789 | 10787 ft | 299 kts | 93° |
| 2026-04-25 23:11 | 43.29429 | 1.18618 | 10502 ft | 297 kts | 93° |
| 2026-04-25 23:11 | 43.29313 | 1.21443 | 10195 ft | 295 kts | 92° |
| 2026-04-25 23:12 | 43.29577 | 1.24205 | 9830 ft | 293 kts | 67° |
| 2026-04-25 23:12 | 43.30511 | 1.26665 | 9554 ft | 289 kts | 59° |
| 2026-04-25 23:12 | 43.31542 | 1.29030 | 9228 ft | 288 kts | 58° |
| 2026-04-25 23:12 | 43.32580 | 1.31379 | 8892 ft | 287 kts | 58° |
| 2026-04-25 23:13 | 43.33608 | 1.33719 | 8572 ft | 284 kts | 59° |
| 2026-04-25 23:13 | 43.34620 | 1.36043 | 8161 ft | 283 kts | 59° |
| 2026-04-25 23:13 | 43.35624 | 1.38361 | 7746 ft | 282 kts | 59° |
| 2026-04-25 23:13 | 43.36620 | 1.40673 | 7336 ft | 279 kts | 59° |
| 2026-04-25 23:14 | 43.37601 | 1.42958 | 6880 ft | 277 kts | 59° |
| 2026-04-25 23:14 | 43.38577 | 1.45236 | 6407 ft | 275 kts | 59° |
| 2026-04-25 23:14 | 43.39643 | 1.47337 | 6130 ft | 264 kts | 41° |
| 2026-04-25 23:14 | 43.41151 | 1.48673 | 5917 ft | 252 kts | 28° |
| 2026-04-25 23:15 | 43.42662 | 1.49769 | 5602 ft | 241 kts | 28° |
| 2026-04-25 23:15 | 43.44119 | 1.50833 | 5228 ft | 234 kts | 28° |
| 2026-04-25 23:15 | 43.45517 | 1.51856 | 4954 ft | 222 kts | 26° |
| 2026-04-25 23:15 | 43.46981 | 1.52348 | 4487 ft | 217 kts | 351° |
| 2026-04-25 23:16 | 43.48273 | 1.51456 | 4240 ft | 205 kts | 322° |
| 2026-04-25 23:16 | 43.49399 | 1.50252 | 3806 ft | 205 kts | 323° |
| 2026-04-25 23:16 | 43.50514 | 1.49080 | 3496 ft | 198 kts | 323° |
| 2026-04-25 23:16 | 43.51589 | 1.47959 | 3078 ft | 191 kts | 323° |
| 2026-04-25 23:17 | 43.52608 | 1.46896 | 2818 ft | 177 kts | 323° |
| 2026-04-25 23:17 | 43.53560 | 1.45902 | 2565 ft | 166 kts | 323° |
| 2026-04-25 23:17 | 43.54444 | 1.44980 | 2362 ft | 157 kts | 323° |
| 2026-04-25 23:17 | 43.55298 | 1.44089 | 2162 ft | 152 kts | 323° |
| 2026-04-25 23:18 | 43.56131 | 1.43220 | 2004 ft | 147 kts | 323° |
| 2026-04-25 23:18 | 43.56953 | 1.42365 | 1763 ft | 147 kts | 323° |
| 2026-04-25 23:18 | 43.57759 | 1.41525 | 1555 ft | 146 kts | 323° |
| 2026-04-25 23:18 | 43.58579 | 1.40670 | 1357 ft | 149 kts | 323° |
| 2026-04-25 23:19 | 43.59417 | 1.39819 | 1157 ft | 149 kts | 324° |
| 2026-04-25 23:19 | 43.60245 | 1.38955 | 978 ft | 149 kts | 322° |
| 2026-04-25 23:19 | 43.61074 | 1.38073 | 757 ft | 152 kts | 322° |
| 2026-04-25 23:19 | 43.61928 | 1.37175 | 536 ft | 156 kts | 323° |
| 2026-04-25 23:20 | 43.62739 | 1.36336 | 493 ft | 122 kts | 323° |
| 2026-04-25 23:20 | 43.63242 | 1.35811 | 490 ft | 60 kts | 323° |
| 2026-04-25 23:20 | 43.63428 | 1.35617 | 490 ft | 18 kts | 322° |
| 2026-04-25 23:20 | 43.63523 | 1.35521 | 493 ft | 16 kts | 326° |
| 2026-04-25 23:21 | 43.63608 | 1.35554 | 486 ft | 14 kts | 50° |
| 2026-04-25 23:21 | 43.63665 | 1.35658 | 491 ft | 13 kts | 53° |
| 2026-04-25 23:21 | 43.63720 | 1.35757 | 489 ft | 13 kts | 52° |
| 2026-04-25 23:21 | 43.63774 | 1.35854 | 484 ft | 13 kts | 52° |
| 2026-04-25 23:22 | 43.63815 | 1.35955 | 488 ft | 12 kts | 86° |
| 2026-04-25 23:22 | 43.63766 | 1.36043 | 490 ft | 12 kts | 142° |
| 2026-04-25 23:22 | 43.63701 | 1.36111 | 489 ft | 12 kts | 143° |
| 2026-04-25 23:23 | 43.63576 | 1.36241 | 487 ft | 11 kts | 142° |
| 2026-04-25 23:23 | 43.63516 | 1.36304 | 493 ft | 11 kts | 142° |
| 2026-04-25 23:23 | 43.63458 | 1.36365 | 493 ft | 10 kts | 143° |
| 2026-04-25 23:23 | 43.63402 | 1.36422 | 490 ft | 10 kts | 144° |
| 2026-04-25 23:24 | 43.63347 | 1.36480 | 491 ft | 10 kts | 142° |
| 2026-04-25 23:24 | 43.63294 | 1.36537 | 485 ft | 10 kts | 143° |
| 2026-04-25 23:24 | 43.63250 | 1.36601 | 491 ft | 9 kts | 102° |
| 2026-04-25 23:24 | 43.63273 | 1.36681 | 484 ft | 9 kts | 65° |
| 2026-04-25 23:25 | 43.63257 | 1.36756 | 486 ft | 9 kts | 137° |
| 2026-04-25 23:25 | 43.63209 | 1.36803 | 489 ft | 9 kts | 151° |
| 2026-04-25 23:25 | 43.63186 | 1.36836 | 490 ft | 4 kts | 78° |
| 2026-04-25 23:25 | 43.63196 | 1.36858 | 493 ft | 2 kts | 50° |
| 2026-04-25 23:26 | 43.63200 | 1.36876 | 488 ft | 2 kts | 83° |
| 2026-04-25 23:26 | 43.63199 | 1.36894 | 486 ft | 2 kts | 99° |
| 2026-04-25 23:26 | 43.63196 | 1.36911 | 490 ft | 2 kts | 102° |
| 2026-04-25 23:26 | 43.63193 | 1.36927 | 493 ft | 2 kts | 104° |
| 2026-04-25 23:27 | 43.63191 | 1.36939 | 487 ft | 1 kts | 104° |
| 2026-04-25 23:27 | 43.63191 | 1.36941 | 487 ft | 0 kts | 104° |